sensor_id;sensor_type;location;lat;lon;timestamp;temperature;humidity
16136;DHT22;8173;48.354;9.248;2023-04-03T00:00:37;1.80;99.90
16136;DHT22;8173;48.354;9.248;2023-04-03T00:03:04;1.80;99.90
16136;DHT22;8173;48.354;9.248;2023-04-03T00:05:32;1.80;99.90
16136;DHT22;8173;48.354;9.248;2023-04-03T00:07:59;1.90;99.90
16136;DHT22;8173;48.354;9.248;2023-04-03T00:10:27;1.90;99.90
16136;DHT22;8173;48.354;9.248;2023-04-03T00:12:54;1.90;99.90
16136;DHT22;8173;48.354;9.248;2023-04-03T00:15:21;1.90;99.90
16136;DHT22;8173;48.354;9.248;2023-04-03T00:17:48;1.90;99.90
16136;DHT22;8173;48.354;9.248;2023-04-03T00:20:14;1.80;99.90
16136;DHT22;8173;48.354;9.248;2023-04-03T00:22:43;1.70;99.90
16136;DHT22;8173;48.354;9.248;2023-04-03T00:25:10;1.70;99.90
16136;DHT22;8173;48.354;9.248;2023-04-03T00:27:37;1.60;99.90
16136;DHT22;8173;48.354;9.248;2023-04-03T00:30:06;1.50;99.90
16136;DHT22;8173;48.354;9.248;2023-04-03T00:32:33;1.50;99.90
16136;DHT22;8173;48.354;9.248;2023-04-03T00:35:00;1.50;99.90
16136;DHT22;8173;48.354;9.248;2023-04-03T00:37:27;1.40;99.90
16136;DHT22;8173;48.354;9.248;2023-04-03T00:39:55;1.40;99.90
16136;DHT22;8173;48.354;9.248;2023-04-03T00:42:22;1.40;99.90
16136;DHT22;8173;48.354;9.248;2023-04-03T00:45:23;1.40;99.90
16136;DHT22;8173;48.354;9.248;2023-04-03T00:47:50;1.50;99.90
16136;DHT22;8173;48.354;9.248;2023-04-03T00:50:17;1.50;99.90
16136;DHT22;8173;48.354;9.248;2023-04-03T00:52:44;1.50;99.90
16136;DHT22;8173;48.354;9.248;2023-04-03T00:55:16;1.60;99.90
16136;DHT22;8173;48.354;9.248;2023-04-03T00:57:43;1.60;99.90
16136;DHT22;8173;48.354;9.248;2023-04-03T01:00:15;1.60;99.90
16136;DHT22;8173;48.354;9.248;2023-04-03T01:02:43;1.40;99.90
16136;DHT22;8173;48.354;9.248;2023-04-03T01:05:10;1.30;99.90
16136;DHT22;8173;48.354;9.248;2023-04-03T01:07:38;1.40;99.90
16136;DHT22;8173;48.354;9.248;2023-04-03T01:10:08;1.30;99.90
16136;DHT22;8173;48.354;9.248;2023-04-03T01:12:38;1.30;99.90
16136;DHT22;8173;48.354;9.248;2023-04-03T01:15:07;1.40;99.90
16136;DHT22;8173;48.354;9.248;2023-04-03T01:17:37;1.40;99.90
16136;DHT22;8173;48.354;9.248;2023-04-03T01:20:35;1.40;99.90
16136;DHT22;8173;48.354;9.248;2023-04-03T01:23:16;1.50;99.90
16136;DHT22;8173;48.354;9.248;2023-04-03T01:25:46;1.50;99.90
16136;DHT22;8173;48.354;9.248;2023-04-03T01:28:17;1.50;99.90
16136;DHT22;8173;48.354;9.248;2023-04-03T01:30:47;1.50;99.90
16136;DHT22;8173;48.354;9.248;2023-04-03T01:33:16;1.50;99.90
16136;DHT22;8173;48.354;9.248;2023-04-03T01:35:43;1.40;99.90
16136;DHT22;8173;48.354;9.248;2023-04-03T01:38:10;1.30;99.90
16136;DHT22;8173;48.354;9.248;2023-04-03T01:40:37;1.20;99.90
16136;DHT22;8173;48.354;9.248;2023-04-03T01:43:03;1.20;99.90
16136;DHT22;8173;48.354;9.248;2023-04-03T01:45:30;1.10;99.90
16136;DHT22;8173;48.354;9.248;2023-04-03T01:47:57;1.10;99.90
16136;DHT22;8173;48.354;9.248;2023-04-03T01:50:25;1.10;99.90
16136;DHT22;8173;48.354;9.248;2023-04-03T01:52:52;1.20;99.90
16136;DHT22;8173;48.354;9.248;2023-04-03T01:55:18;1.20;99.90
16136;DHT22;8173;48.354;9.248;2023-04-03T01:57:45;1.20;99.90
16136;DHT22;8173;48.354;9.248;2023-04-03T02:00:13;1.30;99.90
16136;DHT22;8173;48.354;9.248;2023-04-03T02:02:40;1.30;99.90
16136;DHT22;8173;48.354;9.248;2023-04-03T02:05:07;1.30;99.90
16136;DHT22;8173;48.354;9.248;2023-04-03T02:07:36;1.40;99.90
16136;DHT22;8173;48.354;9.248;2023-04-03T02:10:03;1.30;99.90
16136;DHT22;8173;48.354;9.248;2023-04-03T02:12:29;1.30;99.90
16136;DHT22;8173;48.354;9.248;2023-04-03T02:14:56;1.30;99.90
16136;DHT22;8173;48.354;9.248;2023-04-03T02:17:23;1.30;99.90
16136;DHT22;8173;48.354;9.248;2023-04-03T02:19:50;1.30;99.90
16136;DHT22;8173;48.354;9.248;2023-04-03T02:22:16;1.30;99.90
16136;DHT22;8173;48.354;9.248;2023-04-03T02:24:45;1.30;99.90
16136;DHT22;8173;48.354;9.248;2023-04-03T02:27:11;1.30;99.90
16136;DHT22;8173;48.354;9.248;2023-04-03T02:29:38;1.30;99.90
16136;DHT22;8173;48.354;9.248;2023-04-03T02:32:05;1.30;99.90
16136;DHT22;8173;48.354;9.248;2023-04-03T02:34:32;1.30;99.90
16136;DHT22;8173;48.354;9.248;2023-04-03T02:36:58;1.30;99.90
16136;DHT22;8173;48.354;9.248;2023-04-03T02:39:25;1.30;99.90
16136;DHT22;8173;48.354;9.248;2023-04-03T02:41:54;1.20;99.90
16136;DHT22;8173;48.354;9.248;2023-04-03T02:44:20;1.30;99.90
16136;DHT22;8173;48.354;9.248;2023-04-03T02:46:48;1.20;99.90
16136;DHT22;8173;48.354;9.248;2023-04-03T02:49:15;1.10;99.90
16136;DHT22;8173;48.354;9.248;2023-04-03T02:51:42;1.10;99.90
16136;DHT22;8173;48.354;9.248;2023-04-03T02:54:09;1.10;99.90
16136;DHT22;8173;48.354;9.248;2023-04-03T02:56:35;1.00;99.90
16136;DHT22;8173;48.354;9.248;2023-04-03T02:59:04;1.00;99.90
16136;DHT22;8173;48.354;9.248;2023-04-03T03:01:31;0.90;99.90
16136;DHT22;8173;48.354;9.248;2023-04-03T03:03:58;0.80;99.90
16136;DHT22;8173;48.354;9.248;2023-04-03T03:06:25;0.80;99.90
16136;DHT22;8173;48.354;9.248;2023-04-03T03:08:52;0.70;99.90
16136;DHT22;8173;48.354;9.248;2023-04-03T03:11:19;0.70;99.90
16136;DHT22;8173;48.354;9.248;2023-04-03T03:13:46;0.70;99.90
16136;DHT22;8173;48.354;9.248;2023-04-03T03:16:14;0.60;99.90
16136;DHT22;8173;48.354;9.248;2023-04-03T03:18:41;0.60;99.90
16136;DHT22;8173;48.354;9.248;2023-04-03T03:21:09;0.70;99.90
16136;DHT22;8173;48.354;9.248;2023-04-03T03:23:36;0.70;99.90
16136;DHT22;8173;48.354;9.248;2023-04-03T03:26:05;0.70;99.90
16136;DHT22;8173;48.354;9.248;2023-04-03T03:28:32;0.70;99.90
16136;DHT22;8173;48.354;9.248;2023-04-03T03:30:59;0.70;99.90
16136;DHT22;8173;48.354;9.248;2023-04-03T03:33:27;0.60;99.90
16136;DHT22;8173;48.354;9.248;2023-04-03T03:35:54;1.80;99.90
16136;DHT22;8173;48.354;9.248;2023-04-03T03:38:21;0.60;99.90
16136;DHT22;8173;48.354;9.248;2023-04-03T03:40:49;0.50;99.90
16136;DHT22;8173;48.354;9.248;2023-04-03T03:43:16;0.60;99.90
16136;DHT22;8173;48.354;9.248;2023-04-03T03:45:44;0.60;99.90
16136;DHT22;8173;48.354;9.248;2023-04-03T03:48:11;0.60;99.90
16136;DHT22;8173;48.354;9.248;2023-04-03T03:50:39;0.60;99.90
16136;DHT22;8173;48.354;9.248;2023-04-03T03:53:06;0.60;99.90
16136;DHT22;8173;48.354;9.248;2023-04-03T03:55:32;0.70;99.90
16136;DHT22;8173;48.354;9.248;2023-04-03T03:57:59;0.70;99.90
16136;DHT22;8173;48.354;9.248;2023-04-03T04:00:26;0.70;99.90
16136;DHT22;8173;48.354;9.248;2023-04-03T04:02:53;0.60;99.90
16136;DHT22;8173;48.354;9.248;2023-04-03T04:05:20;0.60;99.90
16136;DHT22;8173;48.354;9.248;2023-04-03T04:07:48;0.50;99.90
16136;DHT22;8173;48.354;9.248;2023-04-03T04:10:15;0.50;99.90
16136;DHT22;8173;48.354;9.248;2023-04-03T04:12:42;0.50;99.90
16136;DHT22;8173;48.354;9.248;2023-04-03T04:15:09;0.60;99.90
16136;DHT22;8173;48.354;9.248;2023-04-03T04:17:36;0.60;99.90
16136;DHT22;8173;48.354;9.248;2023-04-03T04:20:03;0.70;99.90
16136;DHT22;8173;48.354;9.248;2023-04-03T04:22:31;0.70;99.90
16136;DHT22;8173;48.354;9.248;2023-04-03T04:24:59;0.70;99.90
16136;DHT22;8173;48.354;9.248;2023-04-03T04:27:26;0.60;99.90
16136;DHT22;8173;48.354;9.248;2023-04-03T04:29:52;0.50;99.90
16136;DHT22;8173;48.354;9.248;2023-04-03T04:32:19;0.50;99.90
16136;DHT22;8173;48.354;9.248;2023-04-03T04:34:46;0.50;99.90
16136;DHT22;8173;48.354;9.248;2023-04-03T04:37:12;0.50;99.90
16136;DHT22;8173;48.354;9.248;2023-04-03T04:39:39;0.40;99.90
16136;DHT22;8173;48.354;9.248;2023-04-03T04:42:07;0.40;99.90
16136;DHT22;8173;48.354;9.248;2023-04-03T04:44:38;0.40;99.90
16136;DHT22;8173;48.354;9.248;2023-04-03T04:47:04;0.40;99.90
16136;DHT22;8173;48.354;9.248;2023-04-03T04:49:31;0.40;99.90
16136;DHT22;8173;48.354;9.248;2023-04-03T04:51:58;0.40;99.90
16136;DHT22;8173;48.354;9.248;2023-04-03T04:54:24;0.30;99.90
16136;DHT22;8173;48.354;9.248;2023-04-03T04:56:51;0.30;99.90
16136;DHT22;8173;48.354;9.248;2023-04-03T04:59:19;0.30;99.90
16136;DHT22;8173;48.354;9.248;2023-04-03T05:01:46;0.20;99.90
16136;DHT22;8173;48.354;9.248;2023-04-03T05:04:13;0.10;99.90
16136;DHT22;8173;48.354;9.248;2023-04-03T05:06:40;0.10;99.90
16136;DHT22;8173;48.354;9.248;2023-04-03T05:09:07;0.10;99.90
16136;DHT22;8173;48.354;9.248;2023-04-03T05:11:35;0.10;99.90
16136;DHT22;8173;48.354;9.248;2023-04-03T05:14:02;0.10;99.90
16136;DHT22;8173;48.354;9.248;2023-04-03T05:16:32;0.10;99.90
16136;DHT22;8173;48.354;9.248;2023-04-03T05:18:58;0.20;99.90
16136;DHT22;8173;48.354;9.248;2023-04-03T05:21:25;0.20;99.90
16136;DHT22;8173;48.354;9.248;2023-04-03T05:23:54;0.30;99.90
16136;DHT22;8173;48.354;9.248;2023-04-03T05:26:21;0.40;99.90
16136;DHT22;8173;48.354;9.248;2023-04-03T05:28:48;0.50;99.90
16136;DHT22;8173;48.354;9.248;2023-04-03T05:31:14;0.50;99.90
16136;DHT22;8173;48.354;9.248;2023-04-03T05:33:42;0.30;99.90
16136;DHT22;8173;48.354;9.248;2023-04-03T05:36:09;0.20;99.90
16136;DHT22;8173;48.354;9.248;2023-04-03T05:38:37;0.20;99.90
16136;DHT22;8173;48.354;9.248;2023-04-03T05:41:04;0.30;99.90
16136;DHT22;8173;48.354;9.248;2023-04-03T05:43:31;0.20;99.90
16136;DHT22;8173;48.354;9.248;2023-04-03T05:45:59;0.20;99.90
16136;DHT22;8173;48.354;9.248;2023-04-03T05:48:25;0.20;99.90
16136;DHT22;8173;48.354;9.248;2023-04-03T05:50:53;0.20;99.90
16136;DHT22;8173;48.354;9.248;2023-04-03T05:53:22;0.20;99.90
16136;DHT22;8173;48.354;9.248;2023-04-03T05:55:51;0.30;99.90
16136;DHT22;8173;48.354;9.248;2023-04-03T05:58:19;0.40;99.90
16136;DHT22;8173;48.354;9.248;2023-04-03T06:00:45;0.50;99.90
16136;DHT22;8173;48.354;9.248;2023-04-03T06:03:12;0.60;99.90
16136;DHT22;8173;48.354;9.248;2023-04-03T06:05:39;0.60;99.90
16136;DHT22;8173;48.354;9.248;2023-04-03T06:08:08;0.50;99.90
16136;DHT22;8173;48.354;9.248;2023-04-03T06:10:35;0.60;99.90
16136;DHT22;8173;48.354;9.248;2023-04-03T06:13:02;0.70;99.90
16136;DHT22;8173;48.354;9.248;2023-04-03T06:15:29;0.80;99.90
16136;DHT22;8173;48.354;9.248;2023-04-03T06:17:55;1.00;99.90
16136;DHT22;8173;48.354;9.248;2023-04-03T06:20:22;1.10;99.90
16136;DHT22;8173;48.354;9.248;2023-04-03T06:22:49;1.10;99.90
16136;DHT22;8173;48.354;9.248;2023-04-03T06:25:17;1.20;99.90
16136;DHT22;8173;48.354;9.248;2023-04-03T06:27:45;1.30;99.90
16136;DHT22;8173;48.354;9.248;2023-04-03T06:30:12;1.40;99.90
16136;DHT22;8173;48.354;9.248;2023-04-03T06:32:39;1.40;99.90
16136;DHT22;8173;48.354;9.248;2023-04-03T06:35:06;1.50;99.90
16136;DHT22;8173;48.354;9.248;2023-04-03T06:37:34;1.50;99.90
16136;DHT22;8173;48.354;9.248;2023-04-03T06:40:00;1.60;99.90
16136;DHT22;8173;48.354;9.248;2023-04-03T06:42:29;1.70;99.90
16136;DHT22;8173;48.354;9.248;2023-04-03T06:44:56;1.80;99.90
16136;DHT22;8173;48.354;9.248;2023-04-03T06:47:23;1.90;99.90
16136;DHT22;8173;48.354;9.248;2023-04-03T06:49:49;2.00;99.90
16136;DHT22;8173;48.354;9.248;2023-04-03T06:52:16;2.10;99.90
16136;DHT22;8173;48.354;9.248;2023-04-03T06:54:43;2.10;99.90
16136;DHT22;8173;48.354;9.248;2023-04-03T06:57:10;2.20;99.90
16136;DHT22;8173;48.354;9.248;2023-04-03T06:59:38;2.30;99.90
16136;DHT22;8173;48.354;9.248;2023-04-03T07:02:06;2.40;99.90
16136;DHT22;8173;48.354;9.248;2023-04-03T07:04:32;2.50;99.90
16136;DHT22;8173;48.354;9.248;2023-04-03T07:06:59;2.70;99.90
16136;DHT22;8173;48.354;9.248;2023-04-03T07:09:26;2.80;99.90
16136;DHT22;8173;48.354;9.248;2023-04-03T07:11:53;2.90;99.90
16136;DHT22;8173;48.354;9.248;2023-04-03T07:14:19;3.00;99.90
16136;DHT22;8173;48.354;9.248;2023-04-03T07:16:48;3.10;99.90
16136;DHT22;8173;48.354;9.248;2023-04-03T07:19:15;3.30;99.90
16136;DHT22;8173;48.354;9.248;2023-04-03T07:21:43;3.40;99.90
16136;DHT22;8173;48.354;9.248;2023-04-03T07:24:10;3.40;99.90
16136;DHT22;8173;48.354;9.248;2023-04-03T07:26:36;3.40;99.90
16136;DHT22;8173;48.354;9.248;2023-04-03T07:29:03;3.40;99.90
16136;DHT22;8173;48.354;9.248;2023-04-03T07:31:30;3.10;99.90
16136;DHT22;8173;48.354;9.248;2023-04-03T07:33:58;2.80;99.90
16136;DHT22;8173;48.354;9.248;2023-04-03T07:36:25;2.50;99.90
16136;DHT22;8173;48.354;9.248;2023-04-03T07:38:51;2.50;99.90
16136;DHT22;8173;48.354;9.248;2023-04-03T07:41:19;2.90;99.90
16136;DHT22;8173;48.354;9.248;2023-04-03T07:43:47;3.20;99.90
16136;DHT22;8173;48.354;9.248;2023-04-03T07:46:15;3.30;99.90
16136;DHT22;8173;48.354;9.248;2023-04-03T07:48:43;3.40;99.90
16136;DHT22;8173;48.354;9.248;2023-04-03T07:51:12;3.70;99.90
16136;DHT22;8173;48.354;9.248;2023-04-03T07:53:39;3.70;99.90
16136;DHT22;8173;48.354;9.248;2023-04-03T07:56:06;3.60;99.90
16136;DHT22;8173;48.354;9.248;2023-04-03T07:58:33;3.40;99.90
16136;DHT22;8173;48.354;9.248;2023-04-03T08:01:00;3.40;99.90
16136;DHT22;8173;48.354;9.248;2023-04-03T08:03:26;3.20;99.90
16136;DHT22;8173;48.354;9.248;2023-04-03T08:05:53;3.10;99.90
16136;DHT22;8173;48.354;9.248;2023-04-03T08:08:22;3.50;99.90
16136;DHT22;8173;48.354;9.248;2023-04-03T08:10:50;4.00;99.90
16136;DHT22;8173;48.354;9.248;2023-04-03T08:13:17;4.40;99.90
16136;DHT22;8173;48.354;9.248;2023-04-03T08:15:44;4.40;99.90
16136;DHT22;8173;48.354;9.248;2023-04-03T08:18:11;4.60;99.90
16136;DHT22;8173;48.354;9.248;2023-04-03T08:20:39;4.50;99.90
16136;DHT22;8173;48.354;9.248;2023-04-03T08:23:06;4.50;99.90
16136;DHT22;8173;48.354;9.248;2023-04-03T08:25:37;4.10;99.90
16136;DHT22;8173;48.354;9.248;2023-04-03T08:28:04;3.50;99.90
16136;DHT22;8173;48.354;9.248;2023-04-03T08:30:32;3.50;99.90
16136;DHT22;8173;48.354;9.248;2023-04-03T08:33:00;3.70;99.90
16136;DHT22;8173;48.354;9.248;2023-04-03T08:35:27;3.70;99.90
16136;DHT22;8173;48.354;9.248;2023-04-03T08:37:53;3.70;99.90
16136;DHT22;8173;48.354;9.248;2023-04-03T08:40:20;3.80;99.90
16136;DHT22;8173;48.354;9.248;2023-04-03T08:42:56;3.90;99.90
16136;DHT22;8173;48.354;9.248;2023-04-03T08:45:31;3.80;99.90
16136;DHT22;8173;48.354;9.248;2023-04-03T08:48:04;3.90;99.90
16136;DHT22;8173;48.354;9.248;2023-04-03T08:50:37;4.00;99.90
16136;DHT22;8173;48.354;9.248;2023-04-03T08:53:06;4.00;99.90
16136;DHT22;8173;48.354;9.248;2023-04-03T08:55:42;4.10;99.90
16136;DHT22;8173;48.354;9.248;2023-04-03T08:58:12;4.00;99.90
16136;DHT22;8173;48.354;9.248;2023-04-03T09:00:45;4.00;99.90
16136;DHT22;8173;48.354;9.248;2023-04-03T09:03:13;4.00;99.90
16136;DHT22;8173;48.354;9.248;2023-04-03T09:05:43;3.90;99.90
16136;DHT22;8173;48.354;9.248;2023-04-03T09:08:21;3.80;99.90
16136;DHT22;8173;48.354;9.248;2023-04-03T09:10:49;3.60;99.90
16136;DHT22;8173;48.354;9.248;2023-04-03T09:13:24;3.50;99.90
16136;DHT22;8173;48.354;9.248;2023-04-03T09:15:53;3.50;99.90
16136;DHT22;8173;48.354;9.248;2023-04-03T09:18:24;3.30;99.90
16136;DHT22;8173;48.354;9.248;2023-04-03T09:20:57;3.20;99.90
16136;DHT22;8173;48.354;9.248;2023-04-03T09:23:30;3.20;99.90
16136;DHT22;8173;48.354;9.248;2023-04-03T09:26:02;3.00;99.90
16136;DHT22;8173;48.354;9.248;2023-04-03T09:28:34;2.90;99.90
16136;DHT22;8173;48.354;9.248;2023-04-03T09:31:16;3.10;99.90
16136;DHT22;8173;48.354;9.248;2023-04-03T09:33:45;3.50;99.90
16136;DHT22;8173;48.354;9.248;2023-04-03T09:36:12;4.30;99.90
16136;DHT22;8173;48.354;9.248;2023-04-03T09:38:39;4.60;99.90
16136;DHT22;8173;48.354;9.248;2023-04-03T09:41:12;4.90;99.90
16136;DHT22;8173;48.354;9.248;2023-04-03T09:43:51;5.00;99.90
16136;DHT22;8173;48.354;9.248;2023-04-03T09:46:28;5.00;99.90
16136;DHT22;8173;48.354;9.248;2023-04-03T09:48:57;4.90;99.90
16136;DHT22;8173;48.354;9.248;2023-04-03T09:51:25;4.90;99.90
16136;DHT22;8173;48.354;9.248;2023-04-03T09:53:54;4.90;99.90
16136;DHT22;8173;48.354;9.248;2023-04-03T09:56:24;4.80;99.90
16136;DHT22;8173;48.354;9.248;2023-04-03T09:59:08;4.80;99.90
16136;DHT22;8173;48.354;9.248;2023-04-03T10:01:41;4.60;99.90
16136;DHT22;8173;48.354;9.248;2023-04-03T10:04:11;4.70;99.90
16136;DHT22;8173;48.354;9.248;2023-04-03T10:06:39;4.90;99.90
16136;DHT22;8173;48.354;9.248;2023-04-03T10:09:17;5.10;99.90
16136;DHT22;8173;48.354;9.248;2023-04-03T10:11:58;5.40;99.90
16136;DHT22;8173;48.354;9.248;2023-04-03T10:14:27;5.60;99.90
16136;DHT22;8173;48.354;9.248;2023-04-03T10:16:59;5.10;99.90
16136;DHT22;8173;48.354;9.248;2023-04-03T10:19:35;5.00;99.90
16136;DHT22;8173;48.354;9.248;2023-04-03T10:22:06;5.10;99.90
16136;DHT22;8173;48.354;9.248;2023-04-03T10:24:42;5.10;99.90
16136;DHT22;8173;48.354;9.248;2023-04-03T10:27:13;4.90;99.90
16136;DHT22;8173;48.354;9.248;2023-04-03T10:29:51;5.10;99.90
16136;DHT22;8173;48.354;9.248;2023-04-03T10:32:36;5.20;99.90
16136;DHT22;8173;48.354;9.248;2023-04-03T10:35:12;5.40;99.90
16136;DHT22;8173;48.354;9.248;2023-04-03T10:37:50;5.60;99.90
16136;DHT22;8173;48.354;9.248;2023-04-03T10:40:28;5.60;99.90
16136;DHT22;8173;48.354;9.248;2023-04-03T10:43:01;5.60;99.90
16136;DHT22;8173;48.354;9.248;2023-04-03T10:45:44;5.50;99.90
16136;DHT22;8173;48.354;9.248;2023-04-03T10:48:19;5.20;99.90
16136;DHT22;8173;48.354;9.248;2023-04-03T10:50:59;4.70;99.90
16136;DHT22;8173;48.354;9.248;2023-04-03T10:53:33;4.50;99.90
16136;DHT22;8173;48.354;9.248;2023-04-03T10:56:05;4.50;99.90
16136;DHT22;8173;48.354;9.248;2023-04-03T10:58:36;4.60;99.90
16136;DHT22;8173;48.354;9.248;2023-04-03T11:01:08;4.50;99.90
16136;DHT22;8173;48.354;9.248;2023-04-03T11:03:39;4.60;99.90
16136;DHT22;8173;48.354;9.248;2023-04-03T11:06:09;4.80;99.90
16136;DHT22;8173;48.354;9.248;2023-04-03T11:08:39;4.50;99.90
16136;DHT22;8173;48.354;9.248;2023-04-03T11:11:12;4.40;99.90
16136;DHT22;8173;48.354;9.248;2023-04-03T11:13:45;4.60;99.90
16136;DHT22;8173;48.354;9.248;2023-04-03T11:16:17;4.70;99.90
16136;DHT22;8173;48.354;9.248;2023-04-03T11:18:49;4.40;99.90
16136;DHT22;8173;48.354;9.248;2023-04-03T11:21:20;4.20;99.90
16136;DHT22;8173;48.354;9.248;2023-04-03T11:23:48;4.00;99.90
16136;DHT22;8173;48.354;9.248;2023-04-03T11:26:17;4.10;99.90
16136;DHT22;8173;48.354;9.248;2023-04-03T11:28:44;4.20;99.90
16136;DHT22;8173;48.354;9.248;2023-04-03T11:31:23;4.30;99.90
16136;DHT22;8173;48.354;9.248;2023-04-03T11:34:01;4.40;99.90
16136;DHT22;8173;48.354;9.248;2023-04-03T11:36:31;4.50;99.90
16136;DHT22;8173;48.354;9.248;2023-04-03T11:39:01;4.60;99.90
16136;DHT22;8173;48.354;9.248;2023-04-03T11:41:33;4.70;99.90
16136;DHT22;8173;48.354;9.248;2023-04-03T11:44:02;4.90;99.90
16136;DHT22;8173;48.354;9.248;2023-04-03T11:46:50;5.10;99.90
16136;DHT22;8173;48.354;9.248;2023-04-03T11:52:56;4.90;99.90
16136;DHT22;8173;48.354;9.248;2023-04-03T11:55:44;4.60;99.90
16136;DHT22;8173;48.354;9.248;2023-04-03T11:58:14;4.40;99.90
16136;DHT22;8173;48.354;9.248;2023-04-03T12:00:54;4.20;99.90
16136;DHT22;8173;48.354;9.248;2023-04-03T12:09:28;4.10;99.90
16136;DHT22;8173;48.354;9.248;2023-04-03T12:11:57;4.10;99.90
16136;DHT22;8173;48.354;9.248;2023-04-03T12:14:25;4.20;99.90
16136;DHT22;8173;48.354;9.248;2023-04-03T12:16:53;4.00;99.90
16136;DHT22;8173;48.354;9.248;2023-04-03T12:19:35;3.90;99.90
16136;DHT22;8173;48.354;9.248;2023-04-03T12:22:20;4.00;99.90
16136;DHT22;8173;48.354;9.248;2023-04-03T12:24:48;3.70;99.90
16136;DHT22;8173;48.354;9.248;2023-04-03T12:27:33;3.90;99.90
16136;DHT22;8173;48.354;9.248;2023-04-03T12:30:14;4.30;99.90
16136;DHT22;8173;48.354;9.248;2023-04-03T12:33:02;4.70;99.90
16136;DHT22;8173;48.354;9.248;2023-04-03T12:35:36;4.70;99.90
16136;DHT22;8173;48.354;9.248;2023-04-03T12:41:23;5.10;99.90
16136;DHT22;8173;48.354;9.248;2023-04-03T12:44:04;5.60;99.90
16136;DHT22;8173;48.354;9.248;2023-04-03T12:46:38;5.80;99.90
16136;DHT22;8173;48.354;9.248;2023-04-03T12:49:20;5.90;99.90
16136;DHT22;8173;48.354;9.248;2023-04-03T12:51:50;5.90;99.90
16136;DHT22;8173;48.354;9.248;2023-04-03T12:54:21;5.60;99.90
16136;DHT22;8173;48.354;9.248;2023-04-03T12:56:49;5.40;99.90
16136;DHT22;8173;48.354;9.248;2023-04-03T12:59:19;5.00;99.90
16136;DHT22;8173;48.354;9.248;2023-04-03T13:01:53;4.70;99.90
16136;DHT22;8173;48.354;9.248;2023-04-03T13:04:21;4.40;99.90
16136;DHT22;8173;48.354;9.248;2023-04-03T13:06:49;4.20;99.90
16136;DHT22;8173;48.354;9.248;2023-04-03T13:09:22;4.20;99.90
16136;DHT22;8173;48.354;9.248;2023-04-03T13:11:50;4.40;99.90
16136;DHT22;8173;48.354;9.248;2023-04-03T13:14:20;4.60;99.90
16136;DHT22;8173;48.354;9.248;2023-04-03T13:16:54;4.70;99.90
16136;DHT22;8173;48.354;9.248;2023-04-03T13:19:24;4.80;99.90
16136;DHT22;8173;48.354;9.248;2023-04-03T13:21:56;4.70;99.90
16136;DHT22;8173;48.354;9.248;2023-04-03T13:24:25;4.60;99.90
16136;DHT22;8173;48.354;9.248;2023-04-03T13:26:52;4.80;99.90
16136;DHT22;8173;48.354;9.248;2023-04-03T13:29:23;4.80;99.90
16136;DHT22;8173;48.354;9.248;2023-04-03T13:31:53;4.60;99.90
16136;DHT22;8173;48.354;9.248;2023-04-03T13:34:23;4.60;99.90
16136;DHT22;8173;48.354;9.248;2023-04-03T13:36:58;4.70;99.90
16136;DHT22;8173;48.354;9.248;2023-04-03T13:39:28;4.80;99.90
16136;DHT22;8173;48.354;9.248;2023-04-03T13:41:57;4.90;99.90
16136;DHT22;8173;48.354;9.248;2023-04-03T13:44:32;4.90;99.90
16136;DHT22;8173;48.354;9.248;2023-04-03T13:47:01;4.60;99.90
16136;DHT22;8173;48.354;9.248;2023-04-03T13:49:42;4.10;99.90
16136;DHT22;8173;48.354;9.248;2023-04-03T13:52:25;4.20;99.90
16136;DHT22;8173;48.354;9.248;2023-04-03T13:54:55;4.30;99.90
16136;DHT22;8173;48.354;9.248;2023-04-03T13:57:22;4.30;99.90
16136;DHT22;8173;48.354;9.248;2023-04-03T13:59:49;4.40;99.90
16136;DHT22;8173;48.354;9.248;2023-04-03T14:02:20;4.50;99.90
16136;DHT22;8173;48.354;9.248;2023-04-03T14:04:52;5.00;99.90
16136;DHT22;8173;48.354;9.248;2023-04-03T14:07:23;5.70;99.90
16136;DHT22;8173;48.354;9.248;2023-04-03T14:09:51;6.00;99.90
16136;DHT22;8173;48.354;9.248;2023-04-03T14:12:21;6.30;99.90
16136;DHT22;8173;48.354;9.248;2023-04-03T14:14:50;6.40;99.90
16136;DHT22;8173;48.354;9.248;2023-04-03T14:17:19;6.50;99.90
16136;DHT22;8173;48.354;9.248;2023-04-03T14:19:48;6.60;99.90
16136;DHT22;8173;48.354;9.248;2023-04-03T14:22:17;6.40;99.90
16136;DHT22;8173;48.354;9.248;2023-04-03T14:24:46;6.20;99.90
16136;DHT22;8173;48.354;9.248;2023-04-03T14:27:17;5.70;99.90
16136;DHT22;8173;48.354;9.248;2023-04-03T14:29:44;5.30;99.90
16136;DHT22;8173;48.354;9.248;2023-04-03T14:32:12;5.00;99.90
16136;DHT22;8173;48.354;9.248;2023-04-03T14:34:39;5.00;99.90
16136;DHT22;8173;48.354;9.248;2023-04-03T14:37:11;4.80;99.90
16136;DHT22;8173;48.354;9.248;2023-04-03T14:39:38;4.80;99.90
16136;DHT22;8173;48.354;9.248;2023-04-03T14:42:09;4.70;99.90
16136;DHT22;8173;48.354;9.248;2023-04-03T14:44:38;4.70;99.90
16136;DHT22;8173;48.354;9.248;2023-04-03T14:47:05;4.50;99.90
16136;DHT22;8173;48.354;9.248;2023-04-03T14:49:32;4.30;99.90
16136;DHT22;8173;48.354;9.248;2023-04-03T14:51:58;4.20;99.90
16136;DHT22;8173;48.354;9.248;2023-04-03T14:54:25;4.10;99.90
16136;DHT22;8173;48.354;9.248;2023-04-03T14:56:53;4.20;99.90
16136;DHT22;8173;48.354;9.248;2023-04-03T14:59:23;4.20;99.90
16136;DHT22;8173;48.354;9.248;2023-04-03T15:01:49;4.40;99.90
16136;DHT22;8173;48.354;9.248;2023-04-03T15:04:18;4.40;99.90
16136;DHT22;8173;48.354;9.248;2023-04-03T15:06:46;4.50;99.90
16136;DHT22;8173;48.354;9.248;2023-04-03T15:09:19;4.40;99.90
16136;DHT22;8173;48.354;9.248;2023-04-03T15:11:47;4.30;99.90
16136;DHT22;8173;48.354;9.248;2023-04-03T15:14:13;4.00;99.90
16136;DHT22;8173;48.354;9.248;2023-04-03T15:16:42;3.70;99.90
16136;DHT22;8173;48.354;9.248;2023-04-03T15:19:09;3.70;99.90
16136;DHT22;8173;48.354;9.248;2023-04-03T15:21:36;3.70;99.90
16136;DHT22;8173;48.354;9.248;2023-04-03T15:24:03;3.70;99.90
16136;DHT22;8173;48.354;9.248;2023-04-03T15:26:30;3.70;99.90
16136;DHT22;8173;48.354;9.248;2023-04-03T15:28:57;3.70;99.90
16136;DHT22;8173;48.354;9.248;2023-04-03T15:31:24;3.60;99.90
16136;DHT22;8173;48.354;9.248;2023-04-03T15:33:52;3.60;99.90
16136;DHT22;8173;48.354;9.248;2023-04-03T15:36:19;3.70;99.90
16136;DHT22;8173;48.354;9.248;2023-04-03T15:38:45;3.70;99.90
16136;DHT22;8173;48.354;9.248;2023-04-03T15:41:12;3.60;99.90
16136;DHT22;8173;48.354;9.248;2023-04-03T15:43:39;3.90;99.90
16136;DHT22;8173;48.354;9.248;2023-04-03T15:46:06;4.30;99.90
16136;DHT22;8173;48.354;9.248;2023-04-03T15:48:33;4.70;99.90
16136;DHT22;8173;48.354;9.248;2023-04-03T15:51:01;4.90;99.90
16136;DHT22;8173;48.354;9.248;2023-04-03T15:53:28;4.70;99.90
16136;DHT22;8173;48.354;9.248;2023-04-03T15:55:54;4.50;99.90
16136;DHT22;8173;48.354;9.248;2023-04-03T15:58:21;4.30;99.90
16136;DHT22;8173;48.354;9.248;2023-04-03T16:00:48;4.20;99.90
16136;DHT22;8173;48.354;9.248;2023-04-03T16:03:17;4.20;99.90
16136;DHT22;8173;48.354;9.248;2023-04-03T16:05:45;4.20;99.90
16136;DHT22;8173;48.354;9.248;2023-04-03T16:08:13;4.10;99.90
16136;DHT22;8173;48.354;9.248;2023-04-03T16:10:41;4.10;99.90
16136;DHT22;8173;48.354;9.248;2023-04-03T16:13:07;4.10;99.90
16136;DHT22;8173;48.354;9.248;2023-04-03T16:15:35;4.10;99.90
16136;DHT22;8173;48.354;9.248;2023-04-03T16:18:02;3.90;99.90
16136;DHT22;8173;48.354;9.248;2023-04-03T16:20:30;3.80;99.90
16136;DHT22;8173;48.354;9.248;2023-04-03T16:22:57;3.70;99.90
16136;DHT22;8173;48.354;9.248;2023-04-03T16:25:27;3.70;99.90
16136;DHT22;8173;48.354;9.248;2023-04-03T16:27:56;3.80;99.90